Time;durP1;ratioP1;P1;durP2;ratioP2;P2;SDS_P1;SDS_P2;PMS_P1;PMS_P2;Temp;Humidity;BMP_temperature;BMP_pressure;BME280_temperature;BME280_humidity;BME280_pressure;Samples;Min_cycle;Max_cycle;Signal;HPM_P1;HPM_P2
2021/11/21 00:00:44;;;;;;;47.10;25.17;;;;;;;4.14;77.84;100588.53;5004748;28;20056;-62
2021/11/21 00:03:10;;;;;;;37.25;20.67;;;;;;;4.10;75.81;100591.19;5008536;28;20040;-62
2021/11/21 00:05:40;;;;;;;47.85;23.23;;;;;;;4.05;76.42;100577.53;5010269;28;20032;-62
2021/11/21 00:08:06;;;;;;;45.67;25.42;;;;;;;4.03;76.67;100589.00;4999274;28;20022;-58
2021/11/21 00:10:33;;;;;;;41.30;24.70;;;;;;;4.07;78.17;100585.50;5002179;28;20041;-57
2021/11/21 00:13:01;;;;;;;41.53;22.23;;;;;;;4.08;79.02;100573.22;5014896;28;20049;-57
2021/11/21 00:15:27;;;;;;;43.10;23.38;;;;;;;4.03;77.08;100583.44;5002164;28;20041;-55
2021/11/21 00:17:52;;;;;;;39.35;21.55;;;;;;;3.97;77.16;100587.66;5003807;28;20044;-64
2021/11/21 00:20:18;;;;;;;36.28;21.35;;;;;;;4.00;78.43;100581.38;5009897;28;20642;-64
2021/11/21 00:22:45;;;;;;;42.30;21.42;;;;;;;4.03;79.20;100575.09;5004696;28;20018;-55
2021/11/21 00:25:11;;;;;;;34.22;20.73;;;;;;;3.98;77.00;100583.69;5011653;28;20080;-57
2021/11/21 00:27:36;;;;;;;34.72;20.33;;;;;;;4.00;78.41;100581.38;5008793;28;20432;-52
2021/11/21 00:30:03;;;;;;;33.90;21.27;;;;;;;4.01;78.35;100569.09;5010164;28;20018;-64
2021/11/21 00:32:29;;;;;;;38.30;21.42;;;;;;;3.98;79.16;100566.22;5000185;28;20032;-64
2021/11/21 00:34:54;;;;;;;34.17;21.15;;;;;;;3.96;78.85;100574.09;5003353;28;20402;-64
2021/11/21 00:37:19;;;;;;;33.72;18.98;;;;;;;3.96;79.79;100563.78;5000720;28;20385;-57
2021/11/21 00:39:45;;;;;;;32.13;18.48;;;;;;;3.99;80.22;100562.25;5008532;28;20508;-63
2021/11/21 00:42:10;;;;;;;31.30;19.58;;;;;;;3.95;78.58;100562.16;5002853;28;20022;-56
2021/11/21 00:44:36;;;;;;;31.98;18.23;;;;;;;3.92;79.61;100568.44;5009472;28;20081;-56
2021/11/21 00:47:02;;;;;;;32.00;19.48;;;;;;;3.95;80.91;100562.16;4997404;28;20339;-56
2021/11/21 00:49:27;;;;;;;36.70;21.35;;;;;;;3.94;80.83;100554.19;5007959;28;20322;-52
2021/11/21 00:51:53;;;;;;;35.00;19.73;;;;;;;3.90;80.32;100558.84;4997857;28;20034;-64
2021/11/21 00:56:48;;;;;;;54.10;31.42;;;;;;;3.69;80.69;100545.91;5000150;28;20026;-51
2021/11/21 00:59:19;;;;;;;50.85;30.15;;;;;;;3.66;81.72;100541.06;4999031;28;20029;-63
2021/11/21 01:01:44;;;;;;;48.67;27.23;;;;;;;3.64;79.47;100540.63;5006996;28;20108;-47
2021/11/21 01:04:09;;;;;;;56.85;30.60;;;;;;;3.68;80.88;100543.50;5004654;28;20036;-46
2021/11/21 01:06:35;;;;;;;53.22;29.83;;;;;;;3.71;81.13;100528.88;4999979;28;20337;-64
2021/11/21 01:09:00;;;;;;;49.45;28.15;;;;;;;3.73;81.85;100521.81;5010120;28;20080;-63
2021/11/21 01:11:25;;;;;;;45.92;27.05;;;;;;;3.79;81.33;100519.59;4999373;28;20387;-64
2021/11/21 01:13:51;;;;;;;43.58;27.73;;;;;;;3.80;79.94;100514.81;5006279;28;20062;-64
2021/11/21 01:16:16;;;;;;;40.78;26.67;;;;;;;3.78;79.67;100517.16;5004867;28;20022;-58
2021/11/21 01:18:42;;;;;;;40.20;24.77;;;;;;;3.82;79.84;100513.31;5002677;28;20026;-63
2021/11/21 01:21:07;;;;;;;39.45;24.70;;;;;;;3.80;78.61;100515.63;4997673;28;20038;-62
2021/11/21 01:23:33;;;;;;;42.58;25.00;;;;;;;3.77;80.17;100521.91;5004029;28;20030;-47
2021/11/21 01:25:58;;;;;;;42.97;24.77;;;;;;;3.78;81.12;100512.41;4996077;28;20034;-51
2021/11/21 01:28:25;;;;;;;43.88;24.30;;;;;;;3.82;81.30;100513.31;5013977;28;20457;-55
2021/11/21 01:30:51;;;;;;;39.53;23.70;;;;;;;3.87;80.37;100507.50;5011854;28;20063;-47
2021/11/21 01:33:16;;;;;;;41.70;23.48;;;;;;;3.96;79.99;100504.56;5002555;28;20030;-62
2021/11/21 01:35:41;;;;;;;41.00;23.23;;;;;;;4.07;79.04;100510.41;5005796;28;20326;-64
2021/11/21 01:38:07;;;;;;;42.70;23.85;;;;;;;4.04;78.20;100500.81;5002845;28;20081;-63
2021/11/21 01:40:33;;;;;;;38.90;23.25;;;;;;;3.98;78.35;100500.25;5004458;28;20026;-55
2021/11/21 01:42:59;;;;;;;40.63;22.02;;;;;;;3.90;77.89;100498.47;5008755;28;20036;-54
2021/11/21 01:45:25;;;;;;;39.40;21.88;;;;;;;3.84;79.48;100491.53;4998903;28;20445;-64
2021/11/21 01:47:50;;;;;;;38.30;22.45;;;;;;;3.79;79.34;100486.22;5008783;28;20022;-56
2021/11/21 01:50:22;;;;;;;36.00;22.02;;;;;;;3.70;78.45;100493.91;5007364;28;20378;-56
2021/11/21 01:52:47;;;;;;;38.80;23.25;;;;;;;3.74;78.91;100500.38;5001821;28;20026;-57
2021/11/21 01:55:13;;;;;;;42.08;21.15;;;;;;;3.76;79.15;100486.13;5003185;28;20026;-63
2021/11/21 01:57:38;;;;;;;45.42;22.80;;;;;;;3.75;79.49;100490.06;5007861;28;20026;-53
2021/11/21 02:00:08;;;;;;;44.13;23.85;;;;;;;3.77;78.66;100482.19;5006264;28;20030;-56
2021/11/21 02:02:34;;;;;;;45.95;23.48;;;;;;;3.65;77.36;100480.28;5011536;28;20072;-54
2021/11/21 02:04:59;;;;;;;47.67;25.27;;;;;;;3.56;78.85;100493.50;5011691;28;20409;-47
2021/11/21 02:07:27;;;;;;;45.83;26.42;;;;;;;3.54;79.62;100473.59;5005006;28;20096;-56
2021/11/21 02:09:53;;;;;;;46.17;25.13;;;;;;;3.54;80.25;100473.59;4999768;28;20026;-53
2021/11/21 02:12:18;;;;;;;45.47;26.75;;;;;;;3.48;79.60;100470.25;5002653;28;20041;-63
2021/11/21 02:14:43;;;;;;;50.63;23.98;;;;;;;3.48;79.46;100469.44;4999948;28;20026;-63
2021/11/21 02:17:09;;;;;;;44.40;25.08;;;;;;;3.54;78.58;100463.28;5008554;28;20026;-56
2021/11/21 02:19:34;;;;;;;46.45;24.38;;;;;;;3.51;78.84;100455.66;4999215;28;20114;-63
2021/11/21 02:21:59;;;;;;;43.72;25.70;;;;;;;3.40;78.99;100466.47;4998390;28;20029;-52
2021/11/21 02:24:25;;;;;;;49.80;27.23;;;;;;;3.41;80.31;100458.94;5007526;28;20109;-64
2021/11/21 02:26:50;;;;;;;51.05;29.48;;;;;;;3.35;80.32;100455.59;4999377;28;20105;-62
2021/11/21 02:29:16;;;;;;;49.67;27.80;;;;;;;3.27;79.48;100453.75;4998978;28;20023;-54
2021/11/21 02:31:42;;;;;;;47.75;26.70;;;;;;;3.21;78.94;100455.16;5012848;28;20049;-55
2021/11/21 02:34:07;;;;;;;55.47;27.30;;;;;;;3.16;79.60;100455.41;4999309;28;20022;-51
2021/11/21 02:36:33;;;;;;;62.50;30.02;;;;;;;3.09;80.36;100452.44;4998982;28;20080;-57
2021/11/21 02:38:59;;;;;;;57.22;30.42;;;;;;;3.10;81.36;100449.31;4999201;28;20061;-62
2021/11/21 02:41:25;;;;;;;59.55;29.38;;;;;;;3.13;80.91;100450.56;4998314;28;20026;-56
2021/11/21 02:43:50;;;;;;;54.42;28.98;;;;;;;3.09;80.18;100452.44;5002198;28;20041;-47
2021/11/21 02:46:17;;;;;;;55.30;29.80;;;;;;;3.05;80.78;100440.41;4998992;28;20093;-63
2021/11/21 02:48:43;;;;;;;75.28;34.25;;;;;;;2.98;80.82;100441.00;4997731;28;20086;-62
2021/11/21 02:51:11;;;;;;;78.68;31.67;;;;;;;2.90;80.86;100444.72;4998782;28;20080;-64
2021/11/21 02:53:39;;;;;;;94.53;34.97;;;;;;;2.85;81.20;100446.94;5000106;28;20023;-60
2021/11/21 02:56:08;;;;;;;111.40;31.67;;;;;;;2.78;81.70;100439.19;5006744;28;20429;-63
2021/11/21 02:58:35;;;;;;;80.15;29.38;;;;;;;2.72;82.05;100438.59;4998329;28;20440;-62
2021/11/21 03:01:09;;;;;;;54.35;28.08;;;;;;;2.73;82.77;100434.66;4998935;28;20018;-54
2021/11/21 03:03:34;;;;;;;66.72;27.13;;;;;;;2.73;82.05;100443.00;4998593;28;20022;-55
2021/11/21 03:06:00;;;;;;;51.83;25.58;;;;;;;2.67;82.26;100441.63;4998565;28;20030;-54
2021/11/21 03:08:25;;;;;;;63.38;28.88;;;;;;;2.64;82.72;100442.31;4998546;28;20325;-64
2021/11/21 03:10:53;;;;;;;76.03;28.63;;;;;;;2.55;82.41;100433.31;4998509;28;20168;-63
2021/11/21 03:13:18;;;;;;;82.97;29.58;;;;;;;2.53;82.52;100427.31;4998294;28;20113;-53
2021/11/21 03:15:44;;;;;;;121.45;32.08;;;;;;;2.43;82.36;100422.22;4998280;28;20486;-56
2021/11/21 03:18:10;;;;;;;52.45;26.80;;;;;;;2.30;82.88;100415.06;4998327;28;20120;-56
2021/11/21 03:20:36;;;;;;;42.47;22.50;;;;;;;2.39;82.78;100407.41;4998124;28;20026;-63
2021/11/21 03:23:03;;;;;;;41.40;21.48;;;;;;;2.39;82.01;100412.97;4998200;28;20109;-64
2021/11/21 03:25:29;;;;;;;74.10;25.52;;;;;;;2.27;81.77;100410.22;4998319;28;20033;-56
2021/11/21 03:27:54;;;;;;;76.57;26.48;;;;;;;2.13;82.67;100405.78;4997858;28;20026;-56
2021/11/21 03:30:22;;;;;;;62.00;25.85;;;;;;;2.09;83.46;100398.50;5004877;28;20076;-56
2021/11/21 03:32:49;;;;;;;54.15;24.90;;;;;;;2.07;83.52;100401.63;5016079;28;20042;-62
2021/11/21 03:35:15;;;;;;;42.70;23.92;;;;;;;2.10;83.97;100400.13;5017690;28;20021;-53
2021/11/21 03:37:41;;;;;;;70.55;23.92;;;;;;;2.12;83.66;100395.03;5017193;28;20022;-56
2021/11/21 03:40:09;;;;;;;66.00;24.98;;;;;;;2.15;83.42;100402.66;5017728;28;20030;-61
2021/11/21 03:42:35;;;;;;;50.38;24.30;;;;;;;2.12;82.72;100398.63;5017293;28;20410;-58
2021/11/21 03:45:00;;;;;;;41.70;21.98;;;;;;;2.07;82.93;100392.50;5017177;28;20084;-56
2021/11/21 03:47:26;;;;;;;45.25;22.95;;;;;;;2.04;83.39;100390.44;5017128;28;20089;-58
2021/11/21 03:49:51;;;;;;;49.00;22.08;;;;;;;1.99;83.75;100388.69;5017409;28;20034;-63
2021/11/21 03:52:17;;;;;;;39.10;21.63;;;;;;;1.99;83.67;100388.69;5017126;28;20022;-60
2021/11/21 03:54:42;;;;;;;41.50;22.75;;;;;;;2.03;83.64;100380.50;5016961;28;20025;-53
2021/11/21 03:57:09;;;;;;;43.83;22.00;;;;;;;2.00;82.99;100383.97;5017497;28;20416;-62
2021/11/21 03:59:35;;;;;;;40.15;20.60;;;;;;;2.02;83.47;100388.00;5016917;28;20163;-57
2021/11/21 04:02:02;;;;;;;46.03;21.70;;;;;;;2.00;83.22;100384.78;5017459;28;20112;-62
2021/11/21 04:04:29;;;;;;;39.83;21.30;;;;;;;2.02;83.27;100370.56;5015772;28;20427;-51
2021/11/21 04:06:55;;;;;;;37.42;20.65;;;;;;;2.00;82.26;100370.09;5017215;28;20325;-58
2021/11/21 04:09:21;;;;;;;40.28;21.85;;;;;;;1.98;82.75;100364.91;5016773;28;20033;-62
2021/11/21 04:11:47;;;;;;;46.15;21.35;;;;;;;1.96;82.94;100372.75;5017011;28;20413;-63
2021/11/21 04:14:12;;;;;;;42.20;24.40;;;;;;;1.95;83.37;100376.69;5016953;28;20026;-55
2021/11/21 04:16:38;;;;;;;44.17;22.27;;;;;;;1.94;83.54;100368.72;5016844;28;20029;-64
2021/11/21 04:19:04;;;;;;;48.33;22.25;;;;;;;1.92;82.82;100366.28;5017095;28;20112;-55
2021/11/21 04:21:30;;;;;;;44.92;22.67;;;;;;;1.89;83.16;100361.41;5016606;28;20311;-52
2021/11/21 04:23:56;;;;;;;36.75;20.52;;;;;;;1.90;83.00;100356.69;5016236;28;20060;-55
2021/11/21 04:26:22;;;;;;;76.55;30.63;;;;;;;1.99;82.57;100355.44;5016636;28;20030;-53
2021/11/21 04:28:48;;;;;;;46.83;24.55;;;;;;;1.97;82.42;100357.75;5016918;28;20076;-57
2021/11/21 04:31:13;;;;;;;46.47;23.45;;;;;;;1.94;82.53;100341.81;5016582;28;20061;-47
2021/11/21 04:33:38;;;;;;;52.63;25.25;;;;;;;1.93;82.94;100342.16;5016430;28;20026;-62
2021/11/21 04:36:04;;;;;;;69.13;28.42;;;;;;;1.89;83.14;100343.97;5016604;28;20057;-56
2021/11/21 04:38:30;;;;;;;59.42;28.40;;;;;;;1.82;84.02;100339.00;5015693;28;20029;-49
2021/11/21 04:40:55;;;;;;;44.17;25.30;;;;;;;1.80;83.64;100335.78;5016575;28;20028;-57
2021/11/21 04:43:21;;;;;;;51.17;23.42;;;;;;;1.78;83.48;100327.81;5016412;28;20029;-62
2021/11/21 04:45:48;;;;;;;34.95;20.70;;;;;;;1.72;83.98;100322.84;5016273;28;20434;-64
2021/11/21 04:48:13;;;;;;;43.63;22.95;;;;;;;1.79;83.96;100325.84;5015353;28;20032;-63
2021/11/21 04:50:39;;;;;;;45.38;23.42;;;;;;;1.73;82.65;100316.16;5016131;28;20018;-58
2021/11/21 04:53:05;;;;;;;43.53;22.67;;;;;;;1.66;82.99;100313.16;5016198;28;20494;-57
2021/11/21 04:55:31;;;;;;;40.47;21.25;;;;;;;1.68;82.70;100311.66;5016040;28;20341;-55
2021/11/21 04:57:56;;;;;;;39.55;21.27;;;;;;;1.63;82.29;100308.28;5016460;28;20025;-55
2021/11/21 05:00:22;;;;;;;36.60;20.48;;;;;;;1.64;82.75;100304.34;5016135;28;20029;-58
2021/11/21 05:02:50;;;;;;;38.10;21.77;;;;;;;1.65;82.74;100303.22;5016175;28;20037;-62
2021/11/21 05:05:19;;;;;;;37.30;19.77;;;;;;;1.63;82.22;100298.00;5016232;28;20109;-62
2021/11/21 05:07:45;;;;;;;31.42;19.95;;;;;;;1.59;82.26;100297.06;5015677;28;20010;-56
2021/11/21 05:10:10;;;;;;;31.85;19.48;;;;;;;1.59;82.21;100297.06;5015951;28;20030;-62
2021/11/21 05:12:37;;;;;;;36.38;19.67;;;;;;;1.62;82.08;100303.88;5014668;28;20021;-64
2021/11/21 05:15:05;;;;;;;40.85;21.95;;;;;;;1.74;82.12;100292.81;5015913;28;20326;-62
2021/11/21 05:17:30;;;;;;;42.30;22.77;;;;;;;1.81;81.66;100284.72;5015526;28;20025;-55
2021/11/21 05:19:58;;;;;;;43.80;24.75;;;;;;;1.90;81.33;100290.16;5015965;28;20014;-63
2021/11/21 05:22:24;;;;;;;50.95;29.13;;;;;;;2.02;80.87;100292.94;5015589;28;20053;-57
2021/11/21 05:24:50;;;;;;;53.38;27.77;;;;;;;2.06;79.96;100294.66;5015631;28;20026;-62
2021/11/21 05:27:15;;;;;;;69.30;34.80;;;;;;;1.96;79.32;100294.34;5015870;28;20048;-62
2021/11/21 05:29:40;;;;;;;96.97;38.85;;;;;;;1.85;79.44;100291.19;5015810;28;20083;-63
2021/11/21 05:32:06;;;;;;;486.88;118.03;;;;;;;1.79;80.04;100290.63;5015768;28;20053;-61
2021/11/21 05:34:31;;;;;;;312.00;82.43;;;;;;;1.74;80.38;100295.59;5014437;28;20030;-54
2021/11/21 05:36:57;;;;;;;203.52;67.28;;;;;;;1.68;80.68;100294.22;5015470;28;20109;-62
2021/11/21 05:39:22;;;;;;;161.90;55.28;;;;;;;1.64;80.77;100296.03;5015503;28;20049;-62
2021/11/21 05:41:47;;;;;;;120.90;47.38;;;;;;;1.59;80.98;100290.72;5015337;28;20095;-63
2021/11/21 05:44:14;;;;;;;101.63;42.45;;;;;;;1.53;81.37;100290.16;5015478;28;20021;-58
2021/11/21 05:46:41;;;;;;;108.97;42.05;;;;;;;1.52;82.30;100297.66;5015615;28;20367;-52
2021/11/21 05:49:07;;;;;;;104.15;43.95;;;;;;;1.50;83.02;100291.66;5015543;28;20014;-51
2021/11/21 05:51:32;;;;;;;126.45;50.08;;;;;;;1.46;83.11;100296.25;5015269;28;20325;-63
2021/11/21 05:53:58;;;;;;;131.80;52.28;;;;;;;1.36;83.46;100293.91;5015414;28;20028;-60
2021/11/21 05:56:24;;;;;;;143.57;53.95;;;;;;;1.34;84.41;100287.09;5015377;28;20099;-62
2021/11/21 05:58:49;;;;;;;145.60;56.92;;;;;;;1.35;84.51;100297.03;5015246;28;20034;-52
2021/11/21 06:01:17;;;;;;;132.95;47.42;;;;;;;1.34;84.25;100296.22;5015544;28;20109;-55
2021/11/21 06:03:43;;;;;;;153.23;59.45;;;;;;;1.35;84.90;100297.84;5015017;28;20022;-62
2021/11/21 06:06:08;;;;;;;156.88;58.97;;;;;;;1.32;84.60;100295.75;5015262;28;20116;-58
2021/11/21 06:08:34;;;;;;;156.77;61.58;;;;;;;1.30;84.76;100295.28;5015676;28;20096;-59
2021/11/21 06:10:59;;;;;;;140.68;54.78;;;;;;;1.26;85.15;100282.47;5015218;28;20056;-57
2021/11/21 06:13:25;;;;;;;194.65;69.82;;;;;;;1.29;85.24;100284.56;5015343;28;20383;-57
2021/11/21 06:15:52;;;;;;;131.30;49.85;;;;;;;1.27;85.23;100284.91;5015377;28;20018;-56
2021/11/21 06:18:17;;;;;;;152.73;53.17;;;;;;;1.22;85.65;100285.13;5015370;28;20033;-58
2021/11/21 06:20:43;;;;;;;170.77;65.80;;;;;;;1.26;86.48;100274.19;5014745;28;20033;-55
2021/11/21 06:23:11;;;;;;;161.50;63.03;;;;;;;1.34;86.62;100274.06;5015377;28;20091;-60
2021/11/21 06:25:36;;;;;;;266.55;89.13;;;;;;;1.43;86.16;100272.03;5015485;28;20125;-62
2021/11/21 06:28:02;;;;;;;170.45;62.13;;;;;;;1.52;85.64;100260.81;5015002;28;20097;-61
2021/11/21 06:30:27;;;;;;;117.82;46.58;;;;;;;1.60;85.09;100256.31;5015272;28;20369;-61
2021/11/21 06:32:53;;;;;;;73.40;31.55;;;;;;;1.54;85.50;100251.00;5013997;28;20029;-57
2021/11/21 06:35:18;;;;;;;72.93;33.80;;;;;;;1.57;86.26;100243.16;5014920;28;20413;-54
2021/11/21 06:37:44;;;;;;;71.30;32.55;;;;;;;1.65;86.55;100245.03;5013285;28;20326;-57
2021/11/21 06:40:12;;;;;;;117.38;44.10;;;;;;;1.69;86.28;100251.50;5015038;28;20022;-57
2021/11/21 06:42:37;;;;;;;215.65;60.55;;;;;;;1.75;86.90;100244.56;5015082;28;20049;-57
2021/11/21 06:45:03;;;;;;;196.35;60.58;;;;;;;1.80;87.78;100242.34;5015237;28;20108;-57
2021/11/21 06:47:29;;;;;;;75.60;35.47;;;;;;;1.92;88.84;100236.00;5018620;28;20038;-57
2021/11/21 06:49:58;;;;;;;76.00;40.20;;;;;;;2.13;89.98;100227.53;5018432;28;20032;-55
2021/11/21 06:52:23;;;;;;;67.15;40.70;;;;;;;2.40;91.01;100232.31;5018237;28;20022;-55
2021/11/21 06:54:48;;;;;;;55.05;36.05;;;;;;;2.73;91.04;100234.81;5018356;28;20034;-57
2021/11/21 06:57:15;;;;;;;60.92;36.25;;;;;;;2.98;90.60;100229.97;5018260;28;20026;-57
2021/11/21 06:59:41;;;;;;;83.18;60.47;;;;;;;3.16;91.01;100230.44;5018111;28;20029;-61
2021/11/21 07:02:06;;;;;;;60.63;39.60;;;;;;;3.33;91.27;100232.09;5018213;28;20037;-47
2021/11/21 07:04:32;;;;;;;73.97;40.75;;;;;;;3.50;90.97;100228.13;5018032;28;20037;-53
2021/11/21 07:06:57;;;;;;;138.68;96.18;;;;;;;3.65;91.01;100224.56;5018153;28;20029;-57
2021/11/21 07:09:23;;;;;;;237.85;158.43;;;;;;;3.84;92.21;100237.72;5018294;28;20017;-63
2021/11/21 07:11:48;;;;;;;504.60;293.58;;;;;;;3.98;92.31;100236.06;5018161;28;20030;-61
2021/11/21 07:14:14;;;;;;;82.07;50.22;;;;;;;4.20;91.69;100228.22;5017860;28;20084;-63
2021/11/21 07:16:42;;;;;;;37.75;26.35;;;;;;;4.40;91.64;100229.84;5018052;28;20038;-57
2021/11/21 07:19:08;;;;;;;39.70;25.95;;;;;;;4.63;91.45;100232.69;5017837;28;20026;-57
2021/11/21 07:21:34;;;;;;;41.20;24.65;;;;;;;4.84;91.46;100221.97;5017917;28;20368;-62
2021/11/21 07:23:59;;;;;;;38.58;24.23;;;;;;;5.04;91.00;100222.78;5017942;28;20080;-49
2021/11/21 07:26:25;;;;;;;39.80;24.20;;;;;;;5.21;90.62;100227.88;5017795;28;20096;-57
2021/11/21 07:28:51;;;;;;;44.58;25.80;;;;;;;5.43;90.10;100236.59;5017726;28;20449;-58
2021/11/21 07:31:16;;;;;;;52.20;29.45;;;;;;;5.56;89.52;100232.44;5016550;28;20485;-52
2021/11/21 07:33:41;;;;;;;100.30;48.28;;;;;;;5.74;89.98;100230.75;5017507;28;20018;-57
2021/11/21 07:36:07;;;;;;;86.03;42.33;;;;;;;5.89;88.94;100215.03;5017834;28;20029;-61
2021/11/21 07:38:34;;;;;;;45.67;25.15;;;;;;;6.07;88.91;100229.31;5017312;28;20410;-60
2021/11/21 07:41:00;;;;;;;42.00;22.77;;;;;;;6.18;87.88;100221.88;5017884;28;20017;-62
2021/11/21 07:43:25;;;;;;;37.45;23.17;;;;;;;6.34;88.37;100211.34;5017346;28;20034;-56
2021/11/21 07:45:52;;;;;;;40.95;25.02;;;;;;;6.54;88.32;100216.75;5017198;28;20053;-60
2021/11/21 07:48:18;;;;;;;48.42;28.05;;;;;;;6.67;87.38;100220.94;5016301;28;20049;-55
2021/11/21 07:50:44;;;;;;;43.17;24.35;;;;;;;6.76;87.43;100218.66;5017122;28;20026;-58
2021/11/21 07:53:09;;;;;;;41.95;24.52;;;;;;;6.82;86.33;100217.09;5017353;28;20072;-57
2021/11/21 07:55:35;;;;;;;38.15;22.73;;;;;;;6.96;86.99;100220.06;5017069;28;20025;-57
2021/11/21 07:58:01;;;;;;;36.90;22.98;;;;;;;7.05;86.68;100216.97;5016594;28;20024;-57
2021/11/21 08:00:26;;;;;;;37.40;22.13;;;;;;;7.12;86.01;100220.66;5017076;28;20064;-69
2021/11/21 08:02:52;;;;;;;33.70;22.40;;;;;;;7.17;85.15;100213.13;5012673;28;20030;-56
2021/11/21 08:05:17;;;;;;;37.88;24.48;;;;;;;7.24;85.46;100207.59;5010517;28;20154;-55
2021/11/21 08:07:42;;;;;;;61.45;32.30;;;;;;;7.25;84.55;100209.19;5016959;28;20068;-62
2021/11/21 08:10:09;;;;;;;43.58;26.35;;;;;;;7.28;85.54;100209.22;5016826;28;20436;-63
2021/11/21 08:12:35;;;;;;;61.72;32.50;;;;;;;7.33;85.89;100208.06;5013781;28;20108;-62
2021/11/21 08:15:00;;;;;;;43.90;27.25;;;;;;;7.45;86.40;100196.59;5015791;28;20230;-55
2021/11/21 08:17:25;;;;;;;39.63;25.92;;;;;;;7.51;85.42;100200.66;5016260;28;20406;-57
2021/11/21 08:19:51;;;;;;;42.58;26.52;;;;;;;7.60;86.09;100197.50;5016666;28;20755;-64
2021/11/21 08:22:16;;;;;;;41.20;24.25;;;;;;;7.69;85.67;100204.41;5016758;28;20025;-53
2021/11/21 08:24:42;;;;;;;48.15;29.08;;;;;;;7.82;86.04;100201.28;5015948;28;20036;-63
2021/11/21 08:27:07;;;;;;;56.83;34.25;;;;;;;7.94;85.52;100207.38;5016405;28;20022;-63
2021/11/21 08:29:33;;;;;;;37.13;21.90;;;;;;;8.04;84.65;100203.03;5015765;28;20029;-48
2021/11/21 08:31:59;;;;;;;35.20;21.77;;;;;;;8.21;84.93;100196.72;5015882;28;20065;-63
2021/11/21 08:34:25;;;;;;;49.50;30.08;;;;;;;8.33;83.87;100196.44;5016439;28;20359;-61
2021/11/21 08:36:51;;;;;;;36.22;21.65;;;;;;;8.42;83.58;100189.66;5015088;28;20113;-62
2021/11/21 08:39:17;;;;;;;36.30;21.25;;;;;;;8.51;83.36;100201.34;5016035;28;20037;-54
2021/11/21 08:41:43;;;;;;;32.60;21.20;;;;;;;8.71;82.13;100199.00;5015877;28;20021;-50
2021/11/21 08:44:08;;;;;;;34.47;20.73;;;;;;;8.89;82.27;100200.66;5016346;28;20142;-55
2021/11/21 08:46:34;;;;;;;33.45;20.25;;;;;;;9.10;81.26;100208.34;5016219;28;20432;-64
2021/11/21 08:49:00;;;;;;;29.15;18.27;;;;;;;9.24;80.15;100208.34;5015552;28;20080;-57
2021/11/21 08:51:25;;;;;;;27.13;18.23;;;;;;;9.43;80.09;100206.38;5016486;28;20421;-57
2021/11/21 08:53:51;;;;;;;32.03;20.08;;;;;;;9.72;79.54;100198.78;5015801;28;20414;-62
2021/11/21 08:56:16;;;;;;;32.20;20.35;;;;;;;9.92;78.52;100199.97;5009948;28;20109;-57
2021/11/21 08:58:42;;;;;;;31.35;21.75;;;;;;;10.03;78.64;100188.72;5015646;28;20038;-61
2021/11/21 09:01:08;;;;;;;35.67;19.38;;;;;;;10.09;76.92;100187.09;5014901;28;20153;-57
2021/11/21 09:03:35;;;;;;;28.85;18.50;;;;;;;10.11;76.54;100188.28;5015920;28;20045;-52
2021/11/21 09:06:00;;;;;;;28.13;19.25;;;;;;;10.26;78.22;100188.28;5015573;28;20109;-63
2021/11/21 09:08:26;;;;;;;34.38;20.52;;;;;;;10.49;78.01;100183.81;5015955;28;20372;-57
2021/11/21 09:10:52;;;;;;;29.77;20.52;;;;;;;10.59;75.38;100184.97;5010814;28;20026;-62
2021/11/21 09:13:18;;;;;;;26.13;17.67;;;;;;;10.66;74.55;100182.09;5015956;28;20038;-57
2021/11/21 09:15:43;;;;;;;32.40;19.58;;;;;;;10.64;74.17;100175.28;5015352;28;20122;-62
2021/11/21 09:18:09;;;;;;;32.35;17.88;;;;;;;10.71;75.12;100166.84;5015562;28;20091;-64
2021/11/21 09:20:34;;;;;;;26.13;18.65;;;;;;;10.83;74.58;100170.00;5007118;28;20038;-60
2021/11/21 09:23:03;;;;;;;28.13;18.75;;;;;;;10.89;74.28;100170.34;5014575;28;20136;-62
2021/11/21 09:25:28;;;;;;;31.05;18.38;;;;;;;11.02;74.47;100165.06;5015609;28;20314;-60
2021/11/21 09:27:54;;;;;;;31.88;18.73;;;;;;;11.16;73.96;100164.97;5015546;28;20026;-54
2021/11/21 09:30:19;;;;;;;23.58;15.77;;;;;;;11.22;72.92;100170.94;5015148;28;20487;-63
2021/11/21 09:32:45;;;;;;;23.98;16.60;;;;;;;11.43;73.08;100163.16;5015276;28;20028;-63
2021/11/21 09:35:11;;;;;;;24.90;17.75;;;;;;;11.63;72.74;100157.78;5015543;28;20317;-62
2021/11/21 09:37:37;;;;;;;26.00;17.65;;;;;;;11.80;71.95;100153.25;5015069;28;20299;-61
2021/11/21 09:40:03;;;;;;;27.65;18.58;;;;;;;11.81;70.70;100154.03;5014008;28;20372;-65
2021/11/21 09:42:29;;;;;;;92.43;45.22;;;;;;;11.80;70.34;100150.41;5015328;28;20030;-52
2021/11/21 09:44:55;;;;;;;202.40;96.82;;;;;;;11.84;71.01;100142.72;5014806;28;20125;-64
2021/11/21 09:47:20;;;;;;;36.03;22.48;;;;;;;11.75;69.54;100145.97;5005994;28;20018;-58
2021/11/21 09:49:45;;;;;;;44.25;27.58;;;;;;;11.70;70.66;100128.75;5004311;28;20092;-53
2021/11/21 09:52:16;;;;;;;38.95;22.67;;;;;;;11.63;70.87;100126.00;4998198;28;20436;-62
2021/11/21 09:54:41;;;;;;;30.98;18.58;;;;;;;11.62;70.57;100119.56;4998321;28;20029;-49
2021/11/21 09:57:07;;;;;;;27.70;19.48;;;;;;;11.60;71.10;100113.56;4999353;28;20026;-62
2021/11/21 09:59:59;;;;;;;26.70;17.70;;;;;;;11.63;70.63;100111.94;5000387;28;20029;-55
2021/11/21 10:02:30;;;;;;;;;;;;;;;11.61;70.67;100103.09;5014830;28;20112;-62
2021/11/21 10:04:55;;;;;;;30.17;18.77;;;;;;;11.58;71.28;100101.94;5015076;28;19909;-53
2021/11/21 10:07:23;;;;;;;27.75;17.80;;;;;;;11.56;70.66;100098.72;5014998;28;20029;-62
2021/11/21 10:09:49;;;;;;;28.17;18.23;;;;;;;11.51;70.01;100095.56;5015006;28;20437;-62
2021/11/21 10:12:15;;;;;;;29.70;18.90;;;;;;;11.47;71.56;100095.56;5008507;28;20030;-62
2021/11/21 10:15:09;;;;;;;26.17;17.23;;;;;;;11.62;70.81;100094.25;5015272;28;20449;-62
2021/11/21 10:17:37;;;;;;;29.33;17.42;;;;;;;11.63;70.43;100092.22;5010367;28;20396;-62
2021/11/21 10:20:13;;;;;;;27.60;17.35;;;;;;;11.62;70.60;100091.44;5012187;28;20022;-62
2021/11/21 10:22:58;;;;;;;25.05;16.52;;;;;;;11.64;70.39;100088.19;5012909;28;20022;-55
2021/11/21 10:25:42;;;;;;;28.15;17.77;;;;;;;11.68;70.52;100089.75;5001959;28;20113;-63
2021/11/21 10:28:23;;;;;;;26.73;17.55;;;;;;;11.72;70.57;100078.44;5017083;28;20030;-48
2021/11/21 10:31:03;;;;;;;23.52;16.40;;;;;;;11.71;69.52;100065.59;5018639;28;20091;-63
2021/11/21 10:33:36;;;;;;;27.65;17.80;;;;;;;11.73;69.15;100063.94;5015464;28;20025;-62
2021/11/21 10:36:19;;;;;;;23.92;16.75;;;;;;;11.78;70.19;100059.94;5018444;28;20017;-57
2021/11/21 10:38:47;;;;;;;25.92;16.13;;;;;;;11.88;68.79;100055.41;5018266;28;20400;-63
2021/11/21 10:41:25;;;;;;;24.80;16.48;;;;;;;11.91;69.64;100060.19;5018100;28;20152;-58
2021/11/21 10:44:14;;;;;;;26.98;16.45;;;;;;;11.99;69.23;100045.59;5017739;28;20050;-58
2021/11/21 10:46:43;;;;;;;27.45;16.52;;;;;;;12.04;69.32;100039.47;5017801;28;20045;-63
2021/11/21 10:49:35;;;;;;;26.15;17.70;;;;;;;12.16;69.02;100035.31;5015905;28;20026;-59
2021/11/21 10:52:00;;;;;;;24.83;17.58;;;;;;;12.31;68.57;100031.09;5017585;28;20033;-57
2021/11/21 10:54:30;;;;;;;27.35;17.42;;;;;;;12.33;67.45;100033.50;5017919;28;20034;-56
2021/11/21 10:56:57;;;;;;;34.67;21.25;;;;;;;12.35;68.67;100019.78;5017165;28;20045;-63
2021/11/21 10:59:48;;;;;;;25.55;18.17;;;;;;;12.48;67.84;100017.19;5015479;28;20028;-57
2021/11/21 11:02:15;;;;;;;28.67;20.02;;;;;;;12.57;67.26;100026.69;5017620;28;20076;-48
2021/11/21 11:04:56;;;;;;;30.20;21.27;;;;;;;12.56;66.72;100025.09;5017735;28;20040;-57
2021/11/21 11:07:22;;;;;;;28.60;19.77;;;;;;;12.60;67.07;100022.22;5017101;28;20421;-62
2021/11/21 11:09:51;;;;;;;24.02;16.30;;;;;;;12.60;67.75;100006.13;5017220;28;20034;-64
2021/11/21 11:12:17;;;;;;;24.50;17.35;;;;;;;12.70;66.24;100010.00;5017211;28;20034;-58
2021/11/21 11:14:43;;;;;;;27.63;17.08;;;;;;;12.77;67.35;100004.25;5017328;28;20072;-50